Terminal Aerodrome Forecast
Issued by NWS

Home | Current Version | Previous Version | Text Only | Print | Product List | Glossary On
Versions: 1 2 3 4 5 6 7 8 9 10 11 12 13 14 15 16
000
FTUS43 KMPX 281100
TAFAXN
TAF
KAXN 281120Z 2812/2912 13006KT P6SM SCT050 BKN100
     FM281800 12009KT P6SM BKN025 OVC150
     FM282100 13009G14KT 6SM -SHRA BKN020 OVC040
     FM290100 11008KT 6SM BR SCT007 OVC012
     FM290600 12008KT 3SM BR BKN004 OVC009=

USA.gov is the U.S. government's official web portal to all federal, state and local government web resources and services.